Time;durP1;ratioP1;P1;durP2;ratioP2;P2;SDS_P1;SDS_P2;PMS_P1;PMS_P2;Temp;Humidity;BMP_temperature;BMP_pressure;BME280_temperature;BME280_humidity;BME280_pressure;Samples;Min_cycle;Max_cycle;Signal;HPM_P1;HPM_P2
2021/09/11 00:00:24;;;;;;;12.25;9.00;;;;;;;17.35;100.00;99108.81;5015704;28;20048;-81
2021/09/11 00:02:51;;;;;;;13.65;8.90;;;;;;;17.20;100.00;99117.44;5018903;28;20044;-82
2021/09/11 00:05:18;;;;;;;11.30;8.85;;;;;;;17.21;100.00;99108.16;5019234;28;20053;-81
2021/09/11 00:07:46;;;;;;;12.45;8.98;;;;;;;17.27;100.00;99100.91;5017844;28;20049;-81
2021/09/11 00:10:13;;;;;;;13.18;9.70;;;;;;;17.09;100.00;99096.25;5017720;28;20049;-82
2021/09/11 00:12:44;;;;;;;10.35;8.80;;;;;;;17.16;100.00;99089.59;5032029;28;20057;-81
2021/09/11 00:15:14;;;;;;;13.80;9.30;;;;;;;17.15;100.00;99096.16;5035171;28;20064;-81
2021/09/11 00:17:48;;;;;;;11.57;9.18;;;;;;;17.28;100.00;99111.66;5029695;28;20053;-81
2021/09/11 00:20:20;;;;;;;12.10;9.63;;;;;;;17.18;100.00;99092.13;5019217;28;20429;-82
2021/09/11 00:22:47;;;;;;;16.67;9.63;;;;;;;17.32;100.00;99087.28;5020276;28;20053;-81
2021/09/11 00:25:14;;;;;;;14.70;9.32;;;;;;;17.37;100.00;99097.59;5019281;28;20042;-80
2021/09/11 00:27:46;;;;;;;12.88;9.18;;;;;;;17.31;100.00;99093.84;5025081;28;20045;-80
2021/09/11 00:30:21;;;;;;;12.15;9.45;;;;;;;17.33;100.00;99092.56;5024479;28;20047;-81
2021/09/11 00:32:51;;;;;;;14.18;10.57;;;;;;;17.23;100.00;99089.50;5032930;28;20052;-81
2021/09/11 00:35:21;;;;;;;;;;;;;;;17.29;100.00;99105.06;5035308;28;20073;-80
2021/09/11 00:37:50;;;;;;;13.63;9.07;;;;;;;17.24;100.00;99104.94;5015313;28;19952;-80
2021/09/11 00:40:19;;;;;;;11.93;9.38;;;;;;;17.17;100.00;99105.00;5024743;28;20061;-80
2021/09/11 00:42:50;;;;;;;13.43;8.60;;;;;;;17.26;100.00;99101.97;5021990;28;20413;-80
2021/09/11 00:45:21;;;;;;;11.15;8.65;;;;;;;17.10;100.00;99100.66;5024365;28;20123;-80
2021/09/11 00:47:51;;;;;;;14.98;10.38;;;;;;;17.01;100.00;99091.03;5020703;28;20049;-80
2021/09/11 00:50:20;;;;;;;12.35;8.82;;;;;;;17.17;100.00;99110.50;5021831;28;20050;-80
2021/09/11 00:52:49;;;;;;;13.40;9.60;;;;;;;17.17;100.00;99102.25;5020620;28;20229;-79
2021/09/11 00:55:22;;;;;;;12.52;9.55;;;;;;;17.14;100.00;99099.13;5018643;28;20057;-79
2021/09/11 00:57:59;;;;;;;15.57;9.93;;;;;;;17.33;100.00;99110.97;5016682;28;20045;-80
2021/09/11 01:00:28;;;;;;;10.95;8.25;;;;;;;17.07;100.00;99099.22;5024311;28;20041;-80
2021/09/11 01:03:14;;;;;;;11.27;8.35;;;;;;;17.05;100.00;99101.34;5034665;28;20536;-80
2021/09/11 01:05:48;;;;;;;16.90;11.30;;;;;;;16.90;100.00;99120.94;5034717;28;20056;-80
2021/09/11 01:08:19;;;;;;;14.43;11.13;;;;;;;16.92;100.00;99110.59;5021355;28;20448;-80
2021/09/11 01:10:46;;;;;;;14.30;10.25;;;;;;;16.96;100.00;99119.19;5033867;28;20056;-80
2021/09/11 01:13:20;;;;;;;13.57;10.60;;;;;;;16.87;100.00;99115.91;5033788;28;20501;-81
2021/09/11 01:15:47;;;;;;;12.35;10.05;;;;;;;16.85;100.00;99096.06;5025549;28;20049;-81
2021/09/11 01:18:17;;;;;;;13.00;8.88;;;;;;;16.79;100.00;99105.19;5021528;28;20061;-81
2021/09/11 01:20:52;;;;;;;11.57;9.80;;;;;;;16.86;100.00;99099.63;5019611;28;20416;-80
2021/09/11 01:23:20;;;;;;;14.90;9.30;;;;;;;16.69;100.00;99111.19;5018892;28;20448;-81
2021/09/11 01:25:48;;;;;;;13.18;9.48;;;;;;;16.85;100.00;99112.53;5022827;28;20053;-80
2021/09/11 01:28:16;;;;;;;13.55;8.88;;;;;;;16.71;100.00;99109.09;5024179;28;20045;-81
2021/09/11 01:30:43;;;;;;;13.48;10.35;;;;;;;16.60;100.00;99088.69;5034401;28;20060;-81
2021/09/11 01:33:10;;;;;;;15.02;9.80;;;;;;;16.80;100.00;99115.94;5034517;28;20049;-80
2021/09/11 01:35:38;;;;;;;13.43;9.30;;;;;;;16.81;100.00;99103.88;5022959;28;20508;-81
2021/09/11 01:38:05;;;;;;;19.02;10.02;;;;;;;16.79;100.00;99108.78;5018253;28;20054;-81
2021/09/11 01:40:32;;;;;;;12.45;9.80;;;;;;;16.59;100.00;99108.97;5017512;28;20054;-80
2021/09/11 01:43:01;;;;;;;11.05;8.63;;;;;;;16.60;100.00;99110.63;5019620;28;20049;-80
2021/09/11 01:45:28;;;;;;;12.07;7.72;;;;;;;16.67;100.00;99096.03;5023550;28;20045;-80
2021/09/11 01:47:55;;;;;;;11.82;9.05;;;;;;;16.70;100.00;99112.06;5023686;28;20042;-80
2021/09/11 01:50:22;;;;;;;14.43;10.20;;;;;;;16.74;100.00;99124.25;5021903;28;20045;-80
2021/09/11 01:52:50;;;;;;;11.80;8.43;;;;;;;16.69;100.00;99124.09;5033519;28;20107;-80
2021/09/11 01:55:18;;;;;;;16.05;9.48;;;;;;;16.82;100.00;99121.22;5026780;28;20489;-80
2021/09/11 01:57:46;;;;;;;12.27;9.45;;;;;;;16.84;100.00;99123.72;5019787;28;20053;-80
2021/09/11 02:00:16;;;;;;;12.32;8.48;;;;;;;16.83;100.00;99131.13;5012686;28;20042;-80
2021/09/11 02:02:43;;;;;;;10.35;8.75;;;;;;;16.69;100.00;99118.59;5014340;28;20049;-80
2021/09/11 02:05:11;;;;;;;12.68;8.98;;;;;;;16.58;100.00;99132.00;5012648;28;20053;-80
2021/09/11 02:07:39;;;;;;;13.15;9.05;;;;;;;16.64;100.00;99133.00;5012183;28;20061;-80
2021/09/11 02:10:08;;;;;;;12.38;9.05;;;;;;;16.45;100.00;99122.00;5013292;28;20042;-80
2021/09/11 02:12:35;;;;;;;11.75;9.65;;;;;;;16.63;100.00;99137.66;5014062;28;20046;-80
2021/09/11 02:15:02;;;;;;;14.85;9.52;;;;;;;16.64;100.00;99138.50;5023834;28;20049;-80
2021/09/11 02:17:30;;;;;;;12.15;9.40;;;;;;;16.57;100.00;99135.78;5018544;28;20045;-80
2021/09/11 02:19:57;;;;;;;16.58;9.07;;;;;;;16.56;100.00;99116.81;5028742;28;20049;-80
2021/09/11 02:22:23;;;;;;;17.20;9.65;;;;;;;16.69;100.00;99129.56;5033237;28;20080;-80
2021/09/11 02:24:50;;;;;;;14.35;9.55;;;;;;;16.64;100.00;99130.25;5026144;28;20682;-80
2021/09/11 02:27:17;;;;;;;13.23;9.98;;;;;;;16.63;100.00;99125.81;5013785;28;20081;-80
2021/09/11 02:29:44;;;;;;;15.68;9.25;;;;;;;16.75;100.00;99145.13;5013795;28;20057;-80
2021/09/11 02:32:10;;;;;;;12.32;9.02;;;;;;;16.67;100.00;99143.53;5027257;28;20056;-80
2021/09/11 02:34:39;;;;;;;14.98;9.27;;;;;;;16.53;100.00;99117.25;5031930;28;20053;-80
2021/09/11 02:37:06;;;;;;;10.70;8.80;;;;;;;16.69;100.00;99143.31;5032522;28;20046;-80
2021/09/11 02:39:33;;;;;;;16.58;9.60;;;;;;;16.64;100.00;99124.75;5033266;28;20052;-80
2021/09/11 02:42:00;;;;;;;14.60;9.63;;;;;;;16.74;100.00;99135.22;5032620;28;20084;-81
2021/09/11 02:44:27;;;;;;;15.52;9.00;;;;;;;16.91;100.00;99130.88;5029131;28;20107;-80
2021/09/11 02:46:54;;;;;;;15.48;8.73;;;;;;;16.87;100.00;99124.13;5013631;28;20050;-80
2021/09/11 02:49:20;;;;;;;12.70;8.95;;;;;;;16.70;100.00;99123.03;5024257;28;20057;-80
2021/09/11 02:51:49;;;;;;;10.77;8.98;;;;;;;16.68;100.00;99133.38;5033092;28;20050;-81
2021/09/11 02:54:15;;;;;;;13.27;8.55;;;;;;;16.60;100.00;99121.63;5025285;28;20048;-81
2021/09/11 02:56:42;;;;;;;13.85;9.13;;;;;;;16.55;100.00;99124.22;5032967;28;20049;-81
2021/09/11 02:59:09;;;;;;;10.73;7.95;;;;;;;16.71;100.00;99138.41;5032331;28;20053;-80
2021/09/11 03:01:36;;;;;;;12.18;9.27;;;;;;;16.92;100.00;99140.78;5032527;28;20049;-80
2021/09/11 03:04:03;;;;;;;13.13;9.45;;;;;;;16.78;100.00;99140.03;5032719;28;20107;-80
2021/09/11 03:06:30;;;;;;;11.55;9.50;;;;;;;16.83;100.00;99133.88;5032263;28;20068;-81
2021/09/11 03:08:58;;;;;;;13.90;9.48;;;;;;;16.74;100.00;99124.25;5032820;28;20056;-80
2021/09/11 03:11:25;;;;;;;11.40;8.88;;;;;;;16.91;100.00;99147.34;5032211;28;20057;-81
2021/09/11 03:13:52;;;;;;;12.18;9.60;;;;;;;16.79;100.00;99118.94;5019864;28;20046;-81
2021/09/11 03:16:18;;;;;;;10.65;8.93;;;;;;;16.87;100.00;99126.88;5017467;28;20049;-81
2021/09/11 03:18:45;;;;;;;11.82;9.07;;;;;;;16.85;100.00;99117.19;5016290;28;20046;-81
2021/09/11 03:21:12;;;;;;;11.57;9.35;;;;;;;16.85;100.00;99128.16;5019544;28;20038;-80
2021/09/11 03:23:39;;;;;;;10.90;9.18;;;;;;;16.78;100.00;99129.03;5019252;28;20049;-80
2021/09/11 03:26:07;;;;;;;14.15;9.45;;;;;;;16.81;100.00;99117.59;5016514;28;20045;-80
2021/09/11 03:28:34;;;;;;;17.05;9.48;;;;;;;16.94;100.00;99135.91;5015814;28;20045;-80
2021/09/11 03:31:01;;;;;;;14.77;10.38;;;;;;;16.99;100.00;99130.56;5019043;28;20518;-80
2021/09/11 03:33:27;;;;;;;13.40;9.48;;;;;;;16.83;100.00;99131.13;5017769;28;20049;-81
2021/09/11 03:35:54;;;;;;;17.00;9.75;;;;;;;16.92;100.00;99135.28;5011760;28;20046;-80
2021/09/11 03:38:21;;;;;;;11.70;9.35;;;;;;;16.80;100.00;99126.06;5019906;28;20414;-80
2021/09/11 03:40:48;;;;;;;15.40;9.10;;;;;;;16.87;100.00;99135.13;5018840;28;20046;-80
2021/09/11 03:43:16;;;;;;;11.48;9.13;;;;;;;16.87;100.00;99126.88;5019220;28;20042;-81
2021/09/11 03:45:43;;;;;;;12.77;8.73;;;;;;;16.83;100.00;99117.41;5014520;28;20045;-81
2021/09/11 03:48:10;;;;;;;13.88;8.55;;;;;;;16.84;100.00;99126.47;5015328;28;20045;-81
2021/09/11 03:50:37;;;;;;;13.95;8.32;;;;;;;16.94;100.00;99135.91;5019410;28;20076;-81
2021/09/11 03:53:04;;;;;;;11.10;9.00;;;;;;;16.85;100.00;99139.97;5016303;28;20045;-81
2021/09/11 03:55:30;;;;;;;10.95;8.90;;;;;;;16.98;100.00;99145.38;5013595;28;20050;-81
2021/09/11 03:57:58;;;;;;;10.15;8.45;;;;;;;16.63;100.00;99123.06;5018522;28;20060;-81
2021/09/11 04:00:27;;;;;;;11.02;8.77;;;;;;;16.66;100.00;99121.78;5022551;28;20045;-80
2021/09/11 04:02:53;;;;;;;9.60;7.97;;;;;;;16.76;100.00;99139.44;5017606;28;20041;-80
2021/09/11 04:05:20;;;;;;;13.57;8.07;;;;;;;16.83;100.00;99144.00;5014540;28;20124;-80
2021/09/11 04:07:47;;;;;;;13.10;8.05;;;;;;;16.78;100.00;99115.31;5012755;28;20513;-80
2021/09/11 04:10:14;;;;;;;12.93;8.27;;;;;;;16.79;100.00;99138.97;5016275;28;20072;-81
2021/09/11 04:12:41;;;;;;;16.27;7.88;;;;;;;16.79;100.00;99132.66;5016511;28;20046;-80
2021/09/11 04:15:09;;;;;;;9.77;7.15;;;;;;;16.76;100.00;99113.88;5014038;28;20041;-80
2021/09/11 04:17:37;;;;;;;10.30;7.40;;;;;;;16.87;100.00;99145.28;5015815;28;20081;-81
2021/09/11 04:20:04;;;;;;;10.38;7.63;;;;;;;16.73;100.00;99134.38;5015394;28;20096;-81
2021/09/11 04:22:31;;;;;;;11.65;7.22;;;;;;;16.85;100.00;99144.63;5012733;28;20541;-81
2021/09/11 04:24:58;;;;;;;10.07;6.95;;;;;;;16.88;100.00;99138.72;5018438;28;20054;-81
2021/09/11 04:27:25;;;;;;;9.60;7.38;;;;;;;16.83;100.00;99149.50;5025332;28;20052;-81
2021/09/11 04:29:52;;;;;;;8.80;6.95;;;;;;;16.70;100.00;99134.84;5031517;28;20064;-81
2021/09/11 04:32:18;;;;;;;10.52;7.43;;;;;;;16.96;100.00;99152.16;5031737;28;20494;-81
2021/09/11 04:34:47;;;;;;;11.50;6.97;;;;;;;16.83;100.00;99135.78;5015895;28;20049;-81
2021/09/11 04:37:13;;;;;;;8.13;6.90;;;;;;;16.80;100.00;99145.28;5011806;28;20432;-81
2021/09/11 04:39:40;;;;;;;11.10;6.88;;;;;;;16.69;100.00;99132.31;5013774;28;20073;-81
2021/09/11 04:42:07;;;;;;;8.63;6.82;;;;;;;16.86;100.00;99149.91;5016335;28;20071;-81
2021/09/11 04:44:34;;;;;;;12.00;7.00;;;;;;;16.63;100.00;99131.31;5020622;28;20400;-81
2021/09/11 04:47:01;;;;;;;10.65;6.40;;;;;;;16.72;100.00;99143.69;5019007;28;20091;-81
2021/09/11 04:49:28;;;;;;;8.15;6.20;;;;;;;16.70;100.00;99151.31;5016541;28;20068;-81
2021/09/11 04:51:56;;;;;;;6.82;5.65;;;;;;;16.77;100.00;99146.59;5013448;28;20049;-80
2021/09/11 04:54:23;;;;;;;8.23;5.93;;;;;;;16.81;100.00;99158.78;5025368;28;20045;-81
2021/09/11 04:56:49;;;;;;;7.55;6.10;;;;;;;16.83;100.00;99152.25;5031240;28;20045;-81
2021/09/11 04:59:16;;;;;;;12.35;6.80;;;;;;;16.96;100.00;99165.88;5034619;28;20060;-81
2021/09/11 05:01:43;;;;;;;8.50;7.00;;;;;;;16.86;100.00;99149.91;5017758;28;20045;-80
2021/09/11 05:04:10;;;;;;;6.63;5.40;;;;;;;16.88;100.00;99153.28;5016443;28;20038;-80
2021/09/11 05:06:37;;;;;;;8.23;6.25;;;;;;;16.83;100.00;99146.75;5014592;28;20545;-79
2021/09/11 05:09:05;;;;;;;10.75;6.60;;;;;;;16.80;100.00;99154.38;5026196;28;20054;-79
2021/09/11 05:11:32;;;;;;;8.23;6.15;;;;;;;16.93;100.00;99169.91;5034866;28;20115;-79
2021/09/11 05:13:59;;;;;;;8.73;6.43;;;;;;;16.93;100.00;99172.66;5034732;28;20041;-80
2021/09/11 05:16:25;;;;;;;8.00;6.35;;;;;;;16.81;100.00;99160.72;5034074;28;20489;-81
2021/09/11 05:18:52;;;;;;;9.35;6.60;;;;;;;16.85;100.00;99164.69;5034543;28;20060;-81
2021/09/11 05:21:19;;;;;;;7.70;6.90;;;;;;;16.94;100.00;99173.50;5034176;28;20041;-80
2021/09/11 05:23:46;;;;;;;8.43;6.82;;;;;;;16.95;100.00;99173.28;5027202;28;20049;-81
2021/09/11 05:26:14;;;;;;;8.95;7.00;;;;;;;16.97;100.00;99171.13;5020949;28;20038;-81
2021/09/11 05:28:41;;;;;;;10.52;6.78;;;;;;;16.89;100.00;99162.34;5015876;28;20418;-81
2021/09/11 05:31:08;;;;;;;9.95;7.68;;;;;;;16.86;100.00;99160.03;5014663;28;20681;-81
2021/09/11 05:33:35;;;;;;;9.30;7.22;;;;;;;16.97;100.00;99186.78;5027806;28;20042;-81
2021/09/11 05:36:02;;;;;;;8.40;7.13;;;;;;;16.94;100.00;99182.56;5019057;28;20049;-81
2021/09/11 05:38:30;;;;;;;13.48;7.38;;;;;;;16.92;100.00;99181.13;5020813;28;20045;-81
2021/09/11 05:40:57;;;;;;;9.43;6.63;;;;;;;16.77;100.00;99164.97;5020396;28;20045;-81
2021/09/11 05:43:25;;;;;;;10.45;6.82;;;;;;;16.80;100.00;99164.50;5019123;28;20045;-81
2021/09/11 05:45:53;;;;;;;10.68;6.65;;;;;;;16.82;100.00;99170.63;5032967;28;20057;-81
2021/09/11 05:48:20;;;;;;;10.13;6.13;;;;;;;16.87;100.00;99181.78;5034213;28;20058;-81
2021/09/11 05:50:47;;;;;;;11.02;7.65;;;;;;;16.89;100.00;99173.34;5024134;28;20500;-81
2021/09/11 05:53:14;;;;;;;23.33;7.50;;;;;;;16.90;100.00;99181.34;5016478;28;20052;-81
2021/09/11 05:55:41;;;;;;;8.52;5.88;;;;;;;16.92;100.00;99172.88;5019520;28;20058;-80
2021/09/11 05:58:07;;;;;;;7.80;6.15;;;;;;;16.94;100.00;99185.31;5017533;28;20504;-81
2021/09/11 06:00:36;;;;;;;8.48;5.90;;;;;;;16.99;100.00;99192.88;5021014;28;20053;-81
2021/09/11 06:03:03;;;;;;;9.50;7.22;;;;;;;17.08;100.00;99193.44;5015919;28;20383;-81
2021/09/11 06:05:30;;;;;;;8.02;5.85;;;;;;;17.04;100.00;99184.81;5019720;28;20057;-81
2021/09/11 06:07:56;;;;;;;6.88;6.10;;;;;;;17.08;100.00;99166.81;5022061;28;20043;-81
2021/09/11 06:10:23;;;;;;;10.68;6.68;;;;;;;17.11;100.00;99182.81;5017745;28;20057;-81
2021/09/11 06:12:50;;;;;;;7.15;5.60;;;;;;;17.20;100.00;99186.13;5015852;28;20057;-81
2021/09/11 06:15:26;;;;;;;8.00;6.20;;;;;;;17.13;100.00;99180.72;5023464;28;20060;-82
2021/09/11 06:17:54;;;;;;;7.78;6.57;;;;;;;17.13;100.00;99177.97;5026897;28;20513;-81
2021/09/11 06:20:21;;;;;;;9.82;6.55;;;;;;;17.21;100.00;99181.44;5021248;28;20046;-81
2021/09/11 06:22:49;;;;;;;9.55;6.10;;;;;;;17.16;100.00;99177.50;5021224;28;20489;-81
2021/09/11 06:25:16;;;;;;;10.57;6.75;;;;;;;17.29;100.00;99187.50;5017390;28;20478;-81
2021/09/11 06:27:44;;;;;;;8.13;6.82;;;;;;;17.24;100.00;99176.38;5023065;28;20045;-81
2021/09/11 06:30:14;;;;;;;9.38;6.45;;;;;;;17.27;100.00;99175.91;5023160;28;20045;-81
2021/09/11 06:32:43;;;;;;;11.13;6.75;;;;;;;17.42;100.00;99196.66;5022875;28;20569;-82
2021/09/11 06:35:11;;;;;;;9.77;7.15;;;;;;;17.55;100.00;99206.66;5014921;28;20084;-81
2021/09/11 06:37:38;;;;;;;10.95;7.72;;;;;;;17.46;100.00;99193.25;5020305;28;20063;-80
2021/09/11 06:40:06;;;;;;;10.18;7.40;;;;;;;17.54;100.00;99199.47;5016188;28;20042;-80
2021/09/11 06:42:33;;;;;;;9.23;7.30;;;;;;;17.59;100.00;99202.41;5018148;28;20524;-80
2021/09/11 06:45:00;;;;;;;8.98;6.85;;;;;;;17.63;100.00;99192.59;5019297;28;20064;-81
2021/09/11 06:47:27;;;;;;;8.27;6.95;;;;;;;17.69;100.00;99192.53;5024968;28;20049;-81
2021/09/11 06:49:54;;;;;;;8.60;7.15;;;;;;;17.77;100.00;99198.78;5017138;28;20466;-81
2021/09/11 06:52:23;;;;;;;12.27;6.97;;;;;;;17.76;100.00;99194.34;5017613;28;20129;-82
2021/09/11 06:54:59;;;;;;;9.48;6.80;;;;;;;17.85;100.00;99182.81;5018572;28;20452;-81
2021/09/11 06:57:52;;;;;;;8.93;6.80;;;;;;;18.03;100.00;99205.88;5018113;28;20509;-81
2021/09/11 07:00:25;;;;;;;9.98;6.55;;;;;;;18.03;100.00;99203.13;5020910;28;20068;-81
2021/09/11 07:03:13;;;;;;;8.23;6.28;;;;;;;18.11;100.00;99207.44;5018197;28;20497;-81
2021/09/11 07:06:15;;;;;;;6.15;5.55;;;;;;;18.20;100.00;99197.78;5014332;28;20132;-81
2021/09/11 07:08:52;;;;;;;7.55;6.15;;;;;;;18.27;100.00;99204.03;5011939;28;20061;-81
2021/09/11 07:11:25;;;;;;;8.20;6.03;;;;;;;18.22;99.27;99181.91;5031724;28;20042;-81
2021/09/11 07:14:03;;;;;;;6.78;5.88;;;;;;;18.37;97.49;99195.22;5030021;28;20049;-81
2021/09/11 07:16:32;;;;;;;7.60;5.70;;;;;;;18.39;97.54;99202.16;5013686;28;20060;-81
2021/09/11 07:19:24;;;;;;;6.88;5.68;;;;;;;18.42;98.21;99208.28;5016960;28;20133;-81
2021/09/11 07:21:51;;;;;;;9.18;5.90;;;;;;;18.44;98.46;99215.25;5018846;28;20080;-81
2021/09/11 07:24:19;;;;;;;7.88;5.22;;;;;;;18.43;96.58;99220.94;5018984;28;20115;-80
2021/09/11 07:26:46;;;;;;;7.88;5.65;;;;;;;18.46;96.87;99224.09;5020963;28;20107;-82
2021/09/11 07:29:13;;;;;;;8.55;5.72;;;;;;;18.48;97.34;99218.34;5016854;28;20042;-81
2021/09/11 07:31:40;;;;;;;9.73;5.82;;;;;;;18.50;96.87;99206.03;5012862;28;20405;-82
2021/09/11 07:34:07;;;;;;;11.70;6.63;;;;;;;18.74;96.09;99208.81;5027421;28;20076;-81
2021/09/11 07:36:40;;;;;;;7.57;6.30;;;;;;;18.79;93.83;99199.84;5025805;28;20127;-80
2021/09/11 07:39:08;;;;;;;8.65;6.88;;;;;;;18.88;92.53;99218.56;5032819;28;20485;-79
2021/09/11 07:41:36;;;;;;;9.05;6.15;;;;;;;18.95;93.24;99218.44;5030497;28;20045;-81
2021/09/11 07:44:04;;;;;;;11.48;7.10;;;;;;;19.05;93.33;99226.13;5033452;28;20050;-81
2021/09/11 07:46:30;;;;;;;8.57;6.95;;;;;;;18.91;93.76;99203.50;5031042;28;20474;-81
2021/09/11 07:48:57;;;;;;;8.75;6.82;;;;;;;19.13;93.56;99208.41;5021050;28;20299;-81
2021/09/11 07:51:24;;;;;;;9.05;6.22;;;;;;;19.14;92.64;99199.88;5017414;28;20128;-80
2021/09/11 07:53:53;;;;;;;12.57;7.07;;;;;;;19.17;93.44;99215.13;5018977;28;20046;-81
2021/09/11 07:56:20;;;;;;;10.05;6.60;;;;;;;19.38;92.00;99232.97;5015016;28;20496;-81
2021/09/11 07:58:49;;;;;;;13.75;7.13;;;;;;;19.51;93.50;99234.59;5018498;28;20379;-81
2021/09/11 08:01:16;;;;;;;8.13;5.97;;;;;;;19.57;92.77;99237.25;5014791;28;20056;-81
2021/09/11 08:03:46;;;;;;;8.07;6.18;;;;;;;19.67;91.00;99244.06;5016756;28;20136;-81
2021/09/11 08:06:13;;;;;;;7.55;5.18;;;;;;;19.50;88.68;99225.50;5029945;28;20049;-81
2021/09/11 08:08:40;;;;;;;5.93;4.90;;;;;;;19.64;90.53;99248.13;5028091;28;20068;-82
2021/09/11 08:11:07;;;;;;;8.15;5.60;;;;;;;19.75;89.40;99233.50;5017979;28;20084;-82
2021/09/11 08:13:34;;;;;;;8.00;5.40;;;;;;;19.83;89.33;99224.03;5028499;28;20056;-81
2021/09/11 08:16:02;;;;;;;9.02;5.43;;;;;;;19.98;88.95;99234.53;5031860;28;20060;-81
2021/09/11 08:18:29;;;;;;;7.05;5.38;;;;;;;20.18;88.74;99250.66;5025388;28;20042;-81
2021/09/11 08:20:56;;;;;;;29.63;6.07;;;;;;;20.11;87.04;99237.03;5016033;28;20081;-81
2021/09/11 08:23:23;;;;;;;6.57;4.90;;;;;;;20.25;85.72;99250.50;5015516;28;20045;-81
2021/09/11 08:25:50;;;;;;;11.70;5.72;;;;;;;20.43;86.56;99243.94;5014794;28;20042;-81
2021/09/11 08:28:18;;;;;;;6.68;5.32;;;;;;;20.43;86.35;99247.56;5019017;28;20042;-81
2021/09/11 08:30:50;;;;;;;7.85;4.95;;;;;;;20.36;86.21;99229.47;5013043;28;20116;-81
2021/09/11 08:33:19;;;;;;;8.07;4.85;;;;;;;20.38;85.95;99252.13;5021411;28;20122;-82
2021/09/11 08:35:46;;;;;;;6.40;4.50;;;;;;;20.12;85.87;99255.25;5020452;28;20051;-82
2021/09/11 08:38:13;;;;;;;7.53;4.10;;;;;;;19.75;85.17;99240.91;5020304;28;20049;-82
2021/09/11 08:40:43;;;;;;;5.03;4.05;;;;;;;19.62;85.31;99245.63;5023560;28;20049;-81
2021/09/11 08:43:16;;;;;;;4.47;3.80;;;;;;;19.62;86.30;99267.69;5020737;28;20050;-81
2021/09/11 08:45:43;;;;;;;4.78;3.85;;;;;;;19.67;85.69;99266.97;5021802;28;20049;-81
2021/09/11 08:48:15;;;;;;;3.90;3.50;;;;;;;19.64;85.89;99264.69;5018823;28;20056;-81
2021/09/11 08:51:04;;;;;;;4.47;3.50;;;;;;;19.61;85.37;99257.72;5018845;28;20056;-82
2021/09/11 08:53:37;;;;;;;5.00;3.65;;;;;;;19.74;84.87;99261.31;5021084;28;20049;-82
2021/09/11 08:56:04;;;;;;;6.53;3.75;;;;;;;19.96;86.28;99240.31;5026913;28;20107;-82
2021/09/11 08:58:31;;;;;;;6.40;3.60;;;;;;;20.14;86.17;99242.06;5023629;28;20060;-82
2021/09/11 09:01:02;;;;;;;9.90;3.85;;;;;;;20.09;84.33;99241.09;5030539;28;20053;-82
2021/09/11 09:03:33;;;;;;;4.95;3.78;;;;;;;20.22;85.88;99254.63;5028562;28;23342;-81
2021/09/11 09:06:25;;;;;;;4.72;3.67;;;;;;;20.08;83.89;99245.78;5036237;28;20055;-82
2021/09/11 09:09:10;;;;;;;6.32;3.90;;;;;;;20.29;85.74;99265.50;5034526;28;20047;-82
2021/09/11 09:11:41;;;;;;;5.13;3.80;;;;;;;20.45;84.52;99263.88;5032750;28;20092;-82
2021/09/11 09:14:11;;;;;;;4.75;3.55;;;;;;;20.37;82.15;99236.66;5021196;28;20413;-82
2021/09/11 09:16:40;;;;;;;3.75;3.28;;;;;;;20.51;82.64;99241.63;5020094;28;20045;-81
2021/09/11 09:19:14;;;;;;;3.95;3.47;;;;;;;20.56;81.95;99234.53;5019302;28;20069;-81
2021/09/11 09:21:44;;;;;;;4.63;3.58;;;;;;;20.75;82.35;99235.16;5026662;28;20053;-81
2021/09/11 09:24:13;;;;;;;5.57;4.10;;;;;;;21.02;81.71;99250.00;5034720;28;20053;-82
2021/09/11 09:26:50;;;;;;;4.03;3.40;;;;;;;21.17;78.57;99235.56;5030764;28;20055;-82
2021/09/11 09:29:18;;;;;;;5.32;3.60;;;;;;;21.34;79.86;99227.25;5018689;28;20050;-82
2021/09/11 09:31:46;;;;;;;5.55;3.58;;;;;;;21.71;77.45;99248.81;5017393;28;20041;-82
2021/09/11 09:34:31;;;;;;;5.20;3.65;;;;;;;21.36;77.43;99232.53;5020235;28;20041;-82
2021/09/11 09:37:03;;;;;;;4.93;3.47;;;;;;;21.87;78.63;99249.84;5022233;28;20081;-82
2021/09/11 09:39:40;;;;;;;7.13;3.67;;;;;;;21.92;75.06;99238.84;5023347;28;20038;-82
2021/09/11 09:42:10;;;;;;;11.07;3.13;;;;;;;21.98;74.31;99223.16;5025991;28;20045;-82
2021/09/11 09:44:47;;;;;;;4.90;2.83;;;;;;;21.96;76.46;99239.16;5031579;28;20052;-82
2021/09/11 09:47:14;;;;;;;4.10;3.25;;;;;;;21.80;74.50;99251.13;5017773;28;20119;-81
2021/09/11 09:49:41;;;;;;;3.35;2.85;;;;;;;21.55;75.63;99231.16;5020146;28;20482;-80
2021/09/11 09:52:11;;;;;;;5.57;2.78;;;;;;;21.76;74.29;99227.84;5019201;28;20050;-80
2021/09/11 09:54:39;;;;;;;7.32;3.40;;;;;;;21.78;75.70;99251.38;5026092;28;20130;-80
2021/09/11 09:57:08;;;;;;;3.85;3.00;;;;;;;21.86;74.97;99234.34;5029334;28;20092;-80
2021/09/11 09:59:37;;;;;;;4.90;3.00;;;;;;;21.83;74.15;99228.47;5015867;28;20050;-79
2021/09/11 10:02:05;;;;;;;3.50;2.88;;;;;;;21.85;72.96;99218.00;5016044;28;20052;-79
2021/09/11 10:04:36;;;;;;;3.28;2.40;;;;;;;22.05;73.18;99234.00;5031272;28;20053;-79
2021/09/11 10:07:06;;;;;;;4.70;3.30;;;;;;;22.18;73.04;99230.84;5020536;28;20136;-79
2021/09/11 10:09:35;;;;;;;3.67;3.00;;;;;;;22.39;73.17;99222.81;5021106;28;20054;-79
2021/09/11 10:12:02;;;;;;;10.38;3.22;;;;;;;22.07;73.11;99223.50;5019730;28;20054;-79
2021/09/11 10:14:33;;;;;;;8.63;3.60;;;;;;;22.35;72.19;99219.69;5015962;28;20049;-79
2021/09/11 10:17:01;;;;;;;5.88;3.50;;;;;;;22.46;71.06;99212.31;5019389;28;20077;-79
2021/09/11 10:19:30;;;;;;;5.03;3.92;;;;;;;22.56;70.80;99211.59;5017851;28;20049;-79
2021/09/11 10:22:22;;;;;;;3.50;3.08;;;;;;;22.50;70.45;99215.44;5031295;28;20057;-79
2021/09/11 10:24:52;;;;;;;4.32;3.03;;;;;;;22.28;71.39;99219.88;5031749;28;20045;-79
2021/09/11 10:27:24;;;;;;;5.68;2.88;;;;;;;22.39;71.97;99226.41;5026903;28;20045;-79
2021/09/11 10:29:53;;;;;;;4.45;3.53;;;;;;;22.54;72.34;99220.16;5033323;28;20049;-81
2021/09/11 10:32:45;;;;;;;4.55;3.30;;;;;;;22.59;71.63;99216.63;5029255;28;20045;-80
2021/09/11 10:35:17;;;;;;;3.78;3.15;;;;;;;22.98;73.23;99213.63;5003860;28;20174;-80
2021/09/11 10:37:49;;;;;;;4.97;3.67;;;;;;;22.85;71.43;99208.53;5016980;28;20050;-80
2021/09/11 10:40:21;;;;;;;4.75;3.28;;;;;;;22.88;70.55;99206.03;5016874;28;20471;-80
2021/09/11 10:43:10;;;;;;;5.07;3.13;;;;;;;23.10;70.57;99222.59;5020828;28;20054;-81
2021/09/11 10:45:42;;;;;;;4.88;2.90;;;;;;;22.98;70.80;99222.75;5014477;28;20049;-80
2021/09/11 10:48:34;;;;;;;3.58;2.70;;;;;;;22.87;69.29;99198.84;5022521;28;20045;-80
2021/09/11 10:51:18;;;;;;;3.63;2.58;;;;;;;23.08;70.18;99196.22;5027788;28;20064;-80
2021/09/11 10:53:59;;;;;;;7.40;3.05;;;;;;;22.98;69.39;99197.81;5018242;28;20061;-81
2021/09/11 10:56:29;;;;;;;3.88;2.70;;;;;;;23.24;69.37;99205.50;5016399;28;20042;-81
2021/09/11 10:59:33;;;;;;;3.53;2.40;;;;;;;23.26;69.46;99208.84;5020219;28;20049;-82
2021/09/11 11:02:11;;;;;;;3.65;2.88;;;;;;;22.94;68.78;99195.84;5012356;28;20049;-82
2021/09/11 11:04:41;;;;;;;5.07;2.63;;;;;;;22.94;69.45;99191.16;5031025;28;20046;-82
2021/09/11 11:07:09;;;;;;;3.53;2.40;;;;;;;22.85;68.27;99178.03;5022898;28;20398;-81
2021/09/11 11:09:38;;;;;;;3.38;2.42;;;;;;;23.09;68.65;99187.66;5014964;28;20112;-81
2021/09/11 11:12:08;;;;;;;3.22;2.22;;;;;;;22.79;68.53;99168.84;5019236;28;20045;-81
2021/09/11 11:14:37;;;;;;;4.07;2.50;;;;;;;23.20;69.81;99183.03;5031952;28;20053;-81
2021/09/11 11:17:05;;;;;;;3.83;2.83;;;;;;;23.40;67.90;99189.81;5021237;28;20119;-82
2021/09/11 11:19:34;;;;;;;5.88;2.80;;;;;;;23.18;67.37;99182.44;5021930;28;20058;-82
2021/09/11 11:22:04;;;;;;;3.80;2.13;;;;;;;23.38;69.23;99181.75;5020824;28;20060;-81
2021/09/11 11:24:32;;;;;;;3.80;2.55;;;;;;;23.40;67.45;99170.38;5017030;28;20049;-82
2021/09/11 11:27:01;;;;;;;3.78;2.50;;;;;;;23.22;66.18;99178.03;5019062;28;20081;-82
2021/09/11 11:29:29;;;;;;;3.38;2.30;;;;;;;23.25;67.46;99165.59;5022063;28;20056;-81
2021/09/11 11:31:57;;;;;;;3.60;2.50;;;;;;;24.10;66.50;99162.59;5021663;28;20828;-81
2021/09/11 11:34:24;;;;;;;3.55;2.20;;;;;;;24.45;64.84;99162.94;5028539;28;20139;-82